Time;durP1;ratioP1;P1;durP2;ratioP2;P2;SDS_P1;SDS_P2;PMS_P1;PMS_P2;Temp;Humidity;BMP_temperature;BMP_pressure;BME280_temperature;BME280_humidity;BME280_pressure;Samples;Min_cycle;Max_cycle;Signal;HPM_P1;HPM_P2
2022/05/24 00:01:23;;;;;;;15.15;7.25;;;17.10;99.90;;;;;;5039527;28;20049;-81
2022/05/24 00:03:49;;;;;;;15.05;8.15;;;17.10;99.90;;;;;;5034402;28;20037;-81
2022/05/24 00:06:16;;;;;;;13.23;7.85;;;17.10;99.90;;;;;;5020079;28;20480;-87
2022/05/24 00:08:42;;;;;;;13.43;6.78;;;17.10;99.90;;;;;;5037662;28;20110;-82
2022/05/24 00:11:07;;;;;;;17.55;8.20;;;17.00;99.90;;;;;;5030938;28;20030;-82
2022/05/24 00:13:33;;;;;;;13.68;8.10;;;17.00;99.90;;;;;;5014013;28;20576;-81
2022/05/24 00:15:59;;;;;;;12.52;8.02;;;17.00;99.90;;;;;;5038901;28;20841;-82
2022/05/24 00:18:27;;;;;;;12.60;7.07;;;17.00;99.90;;;;;;5058865;28;20565;-83
2022/05/24 00:20:55;;;;;;;15.13;8.48;;;17.00;99.90;;;;;;5045391;28;20040;-83
2022/05/24 00:23:24;;;;;;;16.70;8.07;;;17.00;99.90;;;;;;5043592;28;20039;-82
2022/05/24 00:25:53;;;;;;;16.02;8.50;;;17.00;99.90;;;;;;5035911;28;20116;-82
2022/05/24 00:28:20;;;;;;;17.50;7.53;;;17.00;99.90;;;;;;5040803;28;20155;-83
2022/05/24 00:30:47;;;;;;;14.88;7.72;;;17.00;99.90;;;;;;5038057;28;20037;-82
2022/05/24 00:33:14;;;;;;;13.35;8.32;;;17.10;99.90;;;;;;5033723;28;20081;-83
2022/05/24 00:35:40;;;;;;;14.18;7.85;;;17.10;99.90;;;;;;5035055;28;20126;-82
2022/05/24 00:38:09;;;;;;;13.68;8.18;;;17.10;99.90;;;;;;5034747;28;20028;-82
2022/05/24 00:40:46;;;;;;;11.38;7.60;;;17.10;99.90;;;;;;5032731;28;20071;-83
2022/05/24 00:43:31;;;;;;;12.90;6.97;;;17.10;99.90;;;;;;5050974;28;20055;-82
2022/05/24 00:46:06;;;;;;;13.65;7.28;;;17.00;99.90;;;;;;5033540;28;20033;-82
2022/05/24 00:48:43;;;;;;;14.13;7.10;;;16.90;99.90;;;;;;5042953;28;20053;-82
2022/05/24 00:51:11;;;;;;;11.57;6.07;;;16.90;99.90;;;;;;5045004;28;20032;-82
2022/05/24 00:53:45;;;;;;;10.43;6.75;;;16.90;99.90;;;;;;5041664;28;20211;-82
2022/05/24 00:56:17;;;;;;;12.75;7.22;;;16.90;99.90;;;;;;5024254;28;20060;-82
2022/05/24 00:58:55;;;;;;;16.40;7.00;;;16.90;99.90;;;;;;5022721;28;20121;-82
2022/05/24 01:01:40;;;;;;;15.32;6.78;;;16.90;99.90;;;;;;5051217;28;20033;-82
2022/05/24 01:04:12;;;;;;;17.92;6.60;;;16.90;99.90;;;;;;5032140;28;20044;-82
2022/05/24 01:06:38;;;;;;;12.23;5.65;;;17.00;99.90;;;;;;5017485;28;20108;-81
2022/05/24 01:09:08;;;;;;;14.13;6.82;;;17.00;99.90;;;;;;5019461;28;20034;-82
2022/05/24 01:11:38;;;;;;;11.43;5.82;;;17.00;99.90;;;;;;5024870;28;20029;-82
2022/05/24 01:14:05;;;;;;;10.07;6.30;;;17.00;99.90;;;;;;5036387;28;20039;-82
2022/05/24 01:16:30;;;;;;;9.10;5.68;;;17.00;99.90;;;;;;5018985;28;20349;-81
2022/05/24 01:18:56;;;;;;;8.75;4.70;;;17.10;99.90;;;;;;5039917;28;20526;-81
2022/05/24 01:21:22;;;;;;;11.70;6.00;;;17.10;99.90;;;;;;5027415;28;20464;-82
2022/05/24 01:24:12;;;;;;;12.45;5.88;;;17.10;99.90;;;;;;5020412;28;20033;-82
2022/05/24 01:26:45;;;;;;;10.43;6.15;;;17.00;99.90;;;;;;5024537;28;20018;-82
2022/05/24 01:29:10;;;;;;;13.50;7.10;;;17.00;99.90;;;;;;5031353;28;20132;-82
2022/05/24 01:37:09;;;;;;;11.25;6.15;;;16.90;99.90;;;;;;5028845;28;20199;-82
2022/05/24 01:39:35;;;;;;;9.90;6.13;;;16.90;99.90;;;;;;5026694;28;20112;-82
2022/05/24 01:42:01;;;;;;;11.85;6.88;;;16.90;99.90;;;;;;5028581;28;20052;-82
2022/05/24 01:44:52;;;;;;;11.55;6.45;;;16.90;99.90;;;;;;5029762;28;20026;-82
2022/05/24 01:47:19;;;;;;;;;;;16.90;99.90;;;;;;5040563;28;20025;-81
2022/05/24 01:49:49;;;;;;;9.32;5.90;;;16.90;99.90;;;;;;5058301;28;19909;-82
2022/05/24 01:52:20;;;;;;;9.40;5.45;;;16.90;99.90;;;;;;5040340;28;20033;-82
2022/05/24 01:54:52;;;;;;;9.35;6.25;;;16.90;99.90;;;;;;5037143;28;20038;-82
2022/05/24 01:57:26;;;;;;;11.52;7.03;;;16.90;99.90;;;;;;5034541;28;20029;-82
2022/05/24 01:59:54;;;;;;;13.13;7.35;;;16.90;99.90;;;;;;5038461;28;20037;-90
2022/05/24 02:02:20;;;;;;;12.38;7.60;;;16.90;99.90;;;;;;5035009;28;20136;-83
2022/05/24 02:04:46;;;;;;;13.77;7.65;;;16.90;99.90;;;;;;5031174;28;20065;-83
2022/05/24 02:07:23;;;;;;;13.70;6.65;;;17.00;99.90;;;;;;5033484;28;20073;-82
2022/05/24 02:09:52;;;;;;;13.27;7.28;;;17.10;99.90;;;;;;5026875;28;20025;-83
2022/05/24 02:12:36;;;;;;;14.88;7.35;;;17.00;99.90;;;;;;5009021;28;20107;-82
2022/05/24 02:15:09;;;;;;;11.02;7.45;;;17.00;99.90;;;;;;5032757;28;20033;-82
2022/05/24 02:17:45;;;;;;;11.13;6.53;;;16.90;99.90;;;;;;5037912;28;20405;-82
2022/05/24 02:20:13;;;;;;;11.68;7.13;;;16.90;99.90;;;;;;5040899;28;20029;-83
2022/05/24 02:22:41;;;;;;;11.25;6.85;;;16.90;99.90;;;;;;5037667;28;20048;-82
2022/05/24 02:25:13;;;;;;;12.63;7.40;;;16.90;99.90;;;;;;5037367;28;20274;-84
2022/05/24 02:27:43;;;;;;;17.70;7.40;;;16.80;99.90;;;;;;5035016;28;20366;-83
2022/05/24 02:30:18;;;;;;;12.95;6.85;;;16.80;99.90;;;;;;5029671;28;20048;-82
2022/05/24 02:32:44;;;;;;;12.20;6.60;;;16.80;99.90;;;;;;5034737;28;20040;-86
2022/05/24 02:35:09;;;;;;;10.45;6.65;;;16.80;99.90;;;;;;5029102;28;20029;-83
2022/05/24 02:37:36;;;;;;;11.60;6.30;;;16.80;99.90;;;;;;5031762;28;20066;-82
2022/05/24 02:42:46;;;;;;;11.05;7.03;;;16.70;99.90;;;;;;5029127;28;20060;-84
2022/05/24 02:45:12;;;;;;;13.77;6.88;;;16.70;99.90;;;;;;5042951;28;20423;-82
2022/05/24 02:47:37;;;;;;;16.15;7.18;;;16.70;99.90;;;;;;5034747;28;20025;-82
2022/05/24 02:50:04;;;;;;;12.15;7.10;;;16.70;99.90;;;;;;5041057;28;20041;-82
2022/05/24 02:52:30;;;;;;;10.25;6.80;;;16.70;99.90;;;;;;5040777;28;20033;-82
2022/05/24 02:54:56;;;;;;;9.27;6.70;;;16.70;99.90;;;;;;5034870;28;20053;-83
2022/05/24 02:57:23;;;;;;;11.32;6.88;;;16.60;99.90;;;;;;5035592;28;20086;-82
2022/05/24 02:59:48;;;;;;;8.88;6.40;;;16.60;99.90;;;;;;5033718;28;20044;-82
2022/05/24 03:02:14;;;;;;;9.38;6.25;;;16.60;99.90;;;;;;5022858;28;20044;-82
2022/05/24 03:04:40;;;;;;;10.07;6.05;;;16.60;99.90;;;;;;5032316;28;20095;-81
2022/05/24 03:09:50;;;;;;;8.43;5.60;;;16.60;99.90;;;;;;5034548;28;20079;-82
2022/05/24 03:14:59;;;;;;;9.85;4.95;;;16.60;99.90;;;;;;5034037;28;20715;-82
2022/05/24 03:17:25;;;;;;;8.50;5.47;;;16.50;99.90;;;;;;5045664;28;20036;-81
2022/05/24 03:19:51;;;;;;;8.77;5.38;;;16.60;99.90;;;;;;5041320;28;20036;-82
2022/05/24 03:22:17;;;;;;;8.07;5.20;;;16.50;99.90;;;;;;5040247;28;20408;-85
2022/05/24 03:24:43;;;;;;;10.15;5.63;;;16.60;99.90;;;;;;5035771;28;20108;-82
2022/05/24 03:27:11;;;;;;;8.70;5.30;;;16.50;99.90;;;;;;5042669;28;20516;-81
2022/05/24 03:29:42;;;;;;;14.98;4.60;;;16.50;99.90;;;;;;5038724;28;20072;-83
2022/05/24 03:32:09;;;;;;;8.38;4.88;;;16.50;99.90;;;;;;5036067;28;20476;-82
2022/05/24 03:34:36;;;;;;;7.30;4.80;;;16.50;99.90;;;;;;5052813;28;20037;-82
2022/05/24 03:37:02;;;;;;;12.52;5.13;;;16.60;99.90;;;;;;5032543;28;20030;-82
2022/05/24 03:39:28;;;;;;;7.20;4.82;;;16.50;99.90;;;;;;5036680;28;20033;-82
2022/05/24 03:41:54;;;;;;;7.05;4.97;;;16.50;99.90;;;;;;5028800;28;20068;-82
2022/05/24 03:44:20;;;;;;;6.78;4.63;;;16.50;99.90;;;;;;5030226;28;20087;-85
2022/05/24 03:46:46;;;;;;;6.90;4.22;;;16.50;99.90;;;;;;5046114;28;20033;-83
2022/05/24 03:49:14;;;;;;;7.32;4.38;;;16.50;99.90;;;;;;5044205;28;20040;-82
2022/05/24 03:51:40;;;;;;;7.13;4.90;;;16.50;99.90;;;;;;5053119;28;20117;-83
2022/05/24 03:54:06;;;;;;;7.53;4.65;;;16.50;99.90;;;;;;5039471;28;20137;-81
2022/05/24 03:56:33;;;;;;;10.45;5.13;;;16.50;99.90;;;;;;5035459;28;20553;-84
2022/05/24 03:58:59;;;;;;;8.80;4.20;;;16.50;99.90;;;;;;5041211;28;20036;-83
2022/05/24 04:01:25;;;;;;;5.75;4.60;;;16.40;99.90;;;;;;5030433;28;20045;-82
2022/05/24 04:03:51;;;;;;;8.00;5.07;;;16.40;99.90;;;;;;5033240;28;20036;-82
2022/05/24 04:06:16;;;;;;;8.48;5.28;;;16.50;99.90;;;;;;5016946;28;20029;-82
2022/05/24 04:08:43;;;;;;;7.82;4.93;;;16.50;99.90;;;;;;5034385;28;20029;-84
2022/05/24 04:11:10;;;;;;;7.25;4.80;;;16.50;99.90;;;;;;5031485;28;20029;-82
2022/05/24 04:13:38;;;;;;;8.73;4.80;;;16.50;99.90;;;;;;5030304;28;20041;-82
2022/05/24 04:16:04;;;;;;;10.10;4.90;;;16.50;99.90;;;;;;5043564;28;20060;-83
2022/05/24 04:18:30;;;;;;;7.55;4.88;;;16.50;99.90;;;;;;5038628;28;20129;-82
2022/05/24 04:20:56;;;;;;;7.18;4.97;;;16.50;99.90;;;;;;5023057;28;20518;-85
2022/05/24 04:23:25;;;;;;;7.68;4.68;;;16.50;99.90;;;;;;5038736;28;20074;-83
2022/05/24 04:25:51;;;;;;;8.48;5.28;;;16.50;99.90;;;;;;5043031;28;20581;-83
2022/05/24 04:28:18;;;;;;;7.10;5.03;;;16.60;99.90;;;;;;5039588;28;20067;-83
2022/05/24 04:30:46;;;;;;;12.52;6.47;;;16.60;99.90;;;;;;5032429;28;20130;-83
2022/05/24 04:33:12;;;;;;;8.20;5.32;;;16.60;99.90;;;;;;5047857;28;20025;-82
2022/05/24 04:35:38;;;;;;;10.00;5.35;;;16.60;99.90;;;;;;5038503;28;20032;-82
2022/05/24 04:38:03;;;;;;;7.50;5.30;;;16.60;99.90;;;;;;5034619;28;20033;-82
2022/05/24 04:43:13;;;;;;;9.70;5.40;;;16.60;99.90;;;;;;5036848;28;20068;-83
2022/05/24 04:45:39;;;;;;;8.88;5.05;;;16.60;99.90;;;;;;5045126;28;20536;-81
2022/05/24 04:48:06;;;;;;;10.15;5.82;;;16.50;99.90;;;;;;5043519;28;20064;-83
2022/05/24 04:50:33;;;;;;;7.95;5.38;;;16.60;99.90;;;;;;5044854;28;20465;-85
2022/05/24 04:52:58;;;;;;;7.45;5.50;;;16.50;99.90;;;;;;5036715;28;20037;-83
2022/05/24 04:55:26;;;;;;;8.00;5.47;;;16.50;99.90;;;;;;5041426;28;20370;-84
2022/05/24 04:57:53;;;;;;;9.95;5.90;;;16.50;99.90;;;;;;5023362;28;20053;-83
2022/05/24 05:00:20;;;;;;;7.82;5.15;;;16.50;99.90;;;;;;5029835;28;20040;-83
2022/05/24 05:02:46;;;;;;;7.80;5.05;;;16.60;99.90;;;;;;5035293;28;20044;-85
2022/05/24 05:05:13;;;;;;;7.18;5.65;;;16.50;99.90;;;;;;5032910;28;20028;-83
2022/05/24 05:07:40;;;;;;;8.70;5.35;;;16.60;99.90;;;;;;5030864;28;20033;-83
2022/05/24 05:10:07;;;;;;;6.30;5.10;;;16.50;99.90;;;;;;5033091;28;20076;-83
2022/05/24 05:12:32;;;;;;;9.60;5.15;;;16.50;99.90;;;;;;5030017;28;20095;-88
2022/05/24 05:14:58;;;;;;;7.35;4.55;;;16.50;99.90;;;;;;5036101;28;20503;-84
2022/05/24 05:17:24;;;;;;;7.57;4.50;;;16.40;99.90;;;;;;5057137;28;20039;-78
2022/05/24 05:19:49;;;;;;;8.15;5.25;;;16.40;99.90;;;;;;5038140;28;20052;-84
2022/05/24 05:22:16;;;;;;;16.15;5.15;;;16.40;99.90;;;;;;5028355;28;20865;-84
2022/05/24 05:24:42;;;;;;;10.10;5.97;;;16.40;99.90;;;;;;5032681;28;20032;-84
2022/05/24 05:27:08;;;;;;;11.30;4.85;;;15.90;99.90;;;;;;5031384;28;20029;-86
2022/05/24 05:32:26;;;;;;;12.30;6.10;;;15.20;99.90;;;;;;5032617;28;20122;-88
2022/05/24 05:34:52;;;;;;;9.05;5.60;;;15.10;99.90;;;;;;5047941;28;20041;-86
2022/05/24 05:37:18;;;;;;;10.07;5.20;;;15.00;99.90;;;;;;5033196;28;20041;-83
2022/05/24 05:39:44;;;;;;;9.50;5.15;;;14.80;99.90;;;;;;5030009;28;20036;-89
2022/05/24 05:42:10;;;;;;;9.35;5.32;;;14.80;99.90;;;;;;5029189;28;20064;-88
2022/05/24 05:44:36;;;;;;;7.35;4.53;;;14.80;99.90;;;;;;5034848;28;20528;-86
2022/05/24 05:47:02;;;;;;;5.90;4.57;;;15.00;99.90;;;;;;5030596;28;20033;-87
2022/05/24 05:49:29;;;;;;;6.10;4.40;;;15.00;99.90;;;;;;5038316;28;20033;-87
2022/05/24 05:51:55;;;;;;;6.10;4.53;;;15.00;99.90;;;;;;5039274;28;20040;-85
2022/05/24 05:54:21;;;;;;;6.35;4.57;;;15.00;99.90;;;;;;5041905;28;20506;-86
2022/05/24 05:56:47;;;;;;;7.72;5.15;;;15.00;99.90;;;;;;5049834;28;20041;-85
2022/05/24 05:59:13;;;;;;;8.35;5.03;;;15.00;99.90;;;;;;5036449;28;20043;-84
2022/05/24 06:01:38;;;;;;;7.53;4.32;;;15.10;99.90;;;;;;5030824;28;20458;-83
2022/05/24 06:04:04;;;;;;;6.97;3.95;;;15.10;99.90;;;;;;5033483;28;20040;-85
2022/05/24 06:06:34;;;;;;;6.13;4.22;;;15.10;99.90;;;;;;5032588;28;20503;-87
2022/05/24 06:09:00;;;;;;;8.95;3.83;;;14.90;99.90;;;;;;5045640;28;20084;-89
2022/05/24 06:11:25;;;;;;;7.25;4.00;;;14.80;99.90;;;;;;5028505;28;20037;-84
2022/05/24 06:13:51;;;;;;;8.43;4.00;;;14.90;99.90;;;;;;5033849;28;20102;-86
2022/05/24 06:16:18;;;;;;;5.53;3.70;;;14.90;99.90;;;;;;5020592;28;20044;-85
2022/05/24 06:18:44;;;;;;;5.88;3.50;;;15.00;99.90;;;;;;5043163;28;20480;-86
2022/05/24 06:21:10;;;;;;;3.85;3.10;;;15.10;99.90;;;;;;5037583;28;20052;-84
2022/05/24 06:23:35;;;;;;;5.13;2.80;;;15.00;99.90;;;;;;5036950;28;20035;-84
2022/05/24 06:26:01;;;;;;;6.95;3.60;;;14.90;99.90;;;;;;5030142;28;20040;-86
2022/05/24 06:28:28;;;;;;;6.97;3.58;;;14.90;99.90;;;;;;5034618;28;20496;-86
2022/05/24 06:30:55;;;;;;;7.38;3.08;;;14.90;99.90;;;;;;5031175;28;20538;-86
2022/05/24 06:33:20;;;;;;;5.55;3.83;;;15.00;99.90;;;;;;5029852;28;20083;-84
2022/05/24 06:35:46;;;;;;;5.35;3.20;;;14.90;99.90;;;;;;5035517;28;20476;-86
2022/05/24 06:38:12;;;;;;;5.75;3.30;;;14.90;99.90;;;;;;5030599;28;20019;-86
2022/05/24 06:40:38;;;;;;;4.03;3.08;;;15.00;99.90;;;;;;5032075;28;20040;-85
2022/05/24 06:43:04;;;;;;;5.15;3.30;;;14.90;99.90;;;;;;5030432;28;20044;-83
2022/05/24 06:45:30;;;;;;;6.43;2.88;;;14.90;99.90;;;;;;5042141;28;20093;-84
2022/05/24 06:47:56;;;;;;;4.65;2.83;;;14.90;99.90;;;;;;5013550;28;20073;-84
2022/05/24 06:50:22;;;;;;;4.93;3.00;;;14.60;99.90;;;;;;5039285;28;20068;-84
2022/05/24 06:52:53;;;;;;;4.38;2.90;;;14.40;99.90;;;;;;5038704;28;20036;-88
2022/05/24 06:55:20;;;;;;;5.45;3.22;;;14.20;99.90;;;;;;5037712;28;20028;-87
2022/05/24 06:57:46;;;;;;;4.20;3.25;;;14.30;99.90;;;;;;5038842;28;20056;-88
2022/05/24 07:03:02;;;;;;;6.60;3.55;;;14.40;99.90;;;;;;5034560;28;20040;-88
2022/05/24 07:05:29;;;;;;;6.05;2.75;;;14.40;99.90;;;;;;5028437;28;20051;-88
2022/05/24 07:07:56;;;;;;;7.60;3.22;;;14.40;99.90;;;;;;5030877;28;20049;-86
2022/05/24 07:10:22;;;;;;;4.40;3.13;;;14.60;99.90;;;;;;5029246;28;20031;-86
2022/05/24 07:12:58;;;;;;;7.18;3.40;;;14.60;99.90;;;;;;5031211;28;20116;-87
2022/05/24 07:15:23;;;;;;;5.47;3.50;;;14.70;99.90;;;;;;5034968;28;20040;-87
2022/05/24 07:17:49;;;;;;;6.53;3.75;;;14.70;99.90;;;;;;5034790;28;20032;-87
2022/05/24 07:20:15;;;;;;;6.93;3.40;;;14.70;99.90;;;;;;5036336;28;20029;-87
2022/05/24 07:22:42;;;;;;;4.80;3.45;;;14.80;99.90;;;;;;5037704;28;20397;-84
2022/05/24 07:25:08;;;;;;;5.60;3.17;;;14.90;99.90;;;;;;5039920;28;20025;-85
2022/05/24 07:27:33;;;;;;;4.70;3.55;;;15.00;99.90;;;;;;5039718;28;20043;-83
2022/05/24 07:29:59;;;;;;;6.43;3.20;;;15.10;99.90;;;;;;5035438;28;20054;-85
2022/05/24 07:32:25;;;;;;;11.60;4.57;;;15.30;99.90;;;;;;5035144;28;20519;-86
2022/05/24 07:34:50;;;;;;;4.93;3.10;;;15.50;99.90;;;;;;5030805;28;20045;-84
2022/05/24 07:37:17;;;;;;;5.20;3.67;;;15.70;99.90;;;;;;5033386;28;20037;-85
2022/05/24 07:39:43;;;;;;;4.07;3.33;;;16.10;99.90;;;;;;5031794;28;20112;-82
2022/05/24 07:47:37;;;;;;;6.60;3.38;;;16.10;99.90;;;;;;5039052;28;20126;-87
2022/05/24 07:50:05;;;;;;;4.03;2.92;;;16.00;99.90;;;;;;5039963;28;20059;-83
2022/05/24 07:52:31;;;;;;;5.45;3.45;;;16.00;99.90;;;;;;5035742;28;20052;-82
2022/05/24 07:54:56;;;;;;;4.10;3.10;;;16.30;99.90;;;;;;5036245;28;20059;-83
2022/05/24 07:57:22;;;;;;;4.03;3.08;;;15.70;99.90;;;;;;5022425;28;20033;-83
2022/05/24 07:59:48;;;;;;;4.05;2.97;;;15.40;99.90;;;;;;5036542;28;20516;-82
2022/05/24 08:02:18;;;;;;;5.63;3.63;;;15.10;99.90;;;;;;5034335;28;20408;-83
2022/05/24 08:04:45;;;;;;;5.32;3.72;;;14.90;99.90;;;;;;5029920;28;20029;-82
2022/05/24 08:07:11;;;;;;;7.05;4.47;;;14.80;99.90;;;;;;5032210;28;20499;-84
2022/05/24 08:09:37;;;;;;;5.85;3.85;;;15.00;99.90;;;;;;5045060;28;20068;-84
2022/05/24 08:12:03;;;;;;;4.88;3.42;;;15.10;99.90;;;;;;5028859;28;20058;-83
2022/05/24 08:14:29;;;;;;;6.85;3.47;;;15.20;99.90;;;;;;5038651;28;20112;-84
2022/05/24 08:16:55;;;;;;;5.80;3.38;;;15.20;99.90;;;;;;5041947;28;20033;-85
2022/05/24 08:19:21;;;;;;;6.22;3.97;;;15.10;99.90;;;;;;5053891;28;20104;-84
2022/05/24 08:21:47;;;;;;;7.50;3.83;;;15.00;99.90;;;;;;5041598;28;20047;-84
2022/05/24 08:24:13;;;;;;;4.93;3.42;;;15.00;99.90;;;;;;5040613;28;20412;-85
2022/05/24 08:26:39;;;;;;;9.73;4.05;;;14.80;99.90;;;;;;5037560;28;20135;-85
2022/05/24 08:29:04;;;;;;;9.35;4.97;;;14.50;99.90;;;;;;5033745;28;20569;-84
2022/05/24 08:31:30;;;;;;;7.97;4.55;;;14.50;99.90;;;;;;5038967;28;20042;-84
2022/05/24 08:33:56;;;;;;;4.97;3.38;;;14.60;99.90;;;;;;5036197;28;20136;-82
2022/05/24 08:36:21;;;;;;;6.40;4.03;;;14.80;99.90;;;;;;5032093;28;20032;-83
2022/05/24 08:38:47;;;;;;;8.20;3.85;;;15.10;99.90;;;;;;5026933;28;20488;-83
2022/05/24 08:41:35;;;;;;;6.05;3.78;;;15.30;99.90;;;;;;5031142;28;20411;-83
2022/05/24 08:49:50;;;;;;;4.70;3.03;;;15.10;99.90;;;;;;5038599;28;20389;-80
2022/05/24 08:52:16;;;;;;;2.47;1.15;;;14.70;99.90;;;;;;5033703;28;20032;-80
2022/05/24 08:54:46;;;;;;;5.95;1.27;;;14.00;99.90;;;;;;5050059;28;20037;-80
2022/05/24 08:57:22;;;;;;;1.30;1.00;;;13.90;99.90;;;;;;5049123;28;20041;-79
2022/05/24 08:59:56;;;;;;;5.50;1.40;;;13.90;99.90;;;;;;5031287;28;20034;-82
2022/05/24 09:02:23;;;;;;;1.98;0.93;;;14.10;99.90;;;;;;5045948;28;20120;-84
2022/05/24 09:04:52;;;;;;;2.38;1.00;;;13.90;99.90;;;;;;5023503;28;20053;-83
2022/05/24 09:07:59;;;;;;;2.38;1.00;;;13.80;99.90;;;;;;5027937;28;20225;-87
2022/05/24 09:10:33;;;;;;;1.05;0.73;;;13.60;99.90;;;;;;4944943;28;20074;-84
2022/05/24 09:13:05;;;;;;;2.58;0.40;;;13.60;99.90;;;;;;5031435;28;20699;-83
2022/05/24 09:15:57;;;;;;;0.77;0.50;;;13.60;99.90;;;;;;5041346;28;20443;-82
2022/05/24 09:18:34;;;;;;;0.80;0.55;;;13.80;99.90;;;;;;5039250;28;20499;-83
2022/05/24 09:21:00;;;;;;;1.27;0.82;;;14.10;99.90;;;;;;5035602;28;20033;-83
2022/05/24 09:23:46;;;;;;;1.27;0.60;;;14.30;99.90;;;;;;5022241;28;20052;-82
2022/05/24 09:26:22;;;;;;;0.73;0.52;;;14.40;99.90;;;;;;5034830;28;20091;-82
2022/05/24 09:28:59;;;;;;;0.80;0.60;;;14.40;99.90;;;;;;5034123;28;20033;-81
2022/05/24 09:31:33;;;;;;;4.10;0.73;;;14.50;99.90;;;;;;5030576;28;20133;-82
2022/05/24 09:34:01;;;;;;;0.47;0.47;;;14.50;99.90;;;;;;5032760;28;20051;-82
2022/05/24 09:36:41;;;;;;;0.45;0.40;;;14.40;99.90;;;;;;5044991;28;20075;-83
2022/05/24 09:39:41;;;;;;;1.27;0.60;;;14.40;99.90;;;;;;5027021;28;20112;-82
2022/05/24 09:42:13;;;;;;;1.83;0.87;;;14.50;99.90;;;;;;4991593;28;20069;-84
2022/05/24 09:44:49;;;;;;;2.35;0.82;;;14.40;99.90;;;;;;5041272;28;20800;-84
2022/05/24 09:47:31;;;;;;;1.35;0.55;;;14.30;99.90;;;;;;5034665;28;20112;-83
2022/05/24 09:50:25;;;;;;;1.63;0.70;;;14.40;99.90;;;;;;5024723;28;20029;-87
2022/05/24 09:53:03;;;;;;;1.17;0.65;;;14.40;99.90;;;;;;5033536;28;20222;-81
2022/05/24 09:55:49;;;;;;;1.67;0.70;;;14.50;99.90;;;;;;5047280;28;20025;-81
2022/05/24 09:58:35;;;;;;;0.70;0.70;;;14.70;99.90;;;;;;5033394;28;20044;-79
2022/05/24 10:01:03;;;;;;;0.85;0.63;;;14.80;99.90;;;;;;5029818;28;20083;-82
2022/05/24 10:03:36;;;;;;;0.80;0.80;;;15.00;99.90;;;;;;5029556;28;20524;-79
2022/05/24 10:06:22;;;;;;;1.95;1.00;;;15.30;99.90;;;;;;5024612;28;20025;-80
2022/05/24 10:08:54;;;;;;;1.17;0.73;;;15.40;99.90;;;;;;5044013;28;20084;-79
2022/05/24 10:11:47;;;;;;;1.10;1.00;;;15.20;99.90;;;;;;5024753;28;20498;-79
2022/05/24 10:14:31;;;;;;;0.80;0.80;;;15.40;99.90;;;;;;5035113;28;20037;-77
2022/05/24 10:17:25;;;;;;;1.90;1.20;;;15.40;99.90;;;;;;5033074;28;20480;-80
2022/05/24 10:19:56;;;;;;;1.10;0.73;;;15.20;99.90;;;;;;5035220;28;20029;-81
2022/05/24 10:22:41;;;;;;;1.25;0.80;;;15.20;99.90;;;;;;5029527;28;20609;-82
2022/05/24 10:25:23;;;;;;;1.90;1.13;;;15.10;99.90;;;;;;5051020;28;20077;-82
2022/05/24 10:28:16;;;;;;;1.38;0.98;;;15.00;99.90;;;;;;5035284;28;20099;-89
2022/05/24 10:31:10;;;;;;;0.75;0.75;;;15.20;99.90;;;;;;5025391;28;20043;-81
2022/05/24 10:40:03;;;;;;;2.15;0.80;;;15.30;99.90;;;;;;5026916;28;20037;-82
2022/05/24 10:42:43;;;;;;;0.80;0.73;;;15.30;99.90;;;;;;5034969;28;20021;-80
2022/05/24 10:45:22;;;;;;;3.22;0.90;;;15.10;99.90;;;;;;5041106;28;20112;-82
2022/05/24 10:47:58;;;;;;;0.70;0.70;;;15.10;99.90;;;;;;5043322;28;20268;-82
2022/05/24 10:50:34;;;;;;;1.25;0.85;;;15.10;99.90;;;;;;5030127;28;20029;-81
2022/05/24 10:53:13;;;;;;;1.55;1.05;;;15.30;99.90;;;;;;5034887;28;20488;-81
2022/05/24 10:55:46;;;;;;;1.42;0.90;;;15.10;99.90;;;;;;5027863;28;20521;-80
2022/05/24 10:58:17;;;;;;;0.88;0.65;;;15.20;99.90;;;;;;5029987;28;20101;-79
2022/05/24 11:00:50;;;;;;;1.60;0.70;;;15.20;99.90;;;;;;5030282;28;20072;-79
2022/05/24 11:03:18;;;;;;;2.83;1.13;;;15.50;99.90;;;;;;5030324;28;20044;-80
2022/05/24 11:05:53;;;;;;;2.05;0.80;;;15.20;99.90;;;;;;5029318;28;20025;-80
2022/05/24 11:08:41;;;;;;;8.63;1.02;;;15.40;99.90;;;;;;5046934;28;20331;-81
2022/05/24 11:11:15;;;;;;;1.83;0.80;;;15.50;99.90;;;;;;5028373;28;20038;-81
2022/05/24 11:13:53;;;;;;;0.82;0.77;;;15.50;99.90;;;;;;5041279;28;20025;-78
2022/05/24 11:16:33;;;;;;;0.82;0.80;;;15.70;99.90;;;;;;5027114;28;20766;-77
2022/05/24 11:18:59;;;;;;;4.53;1.10;;;15.50;99.90;;;;;;5044329;28;20033;-81
2022/05/24 11:21:39;;;;;;;2.95;1.13;;;15.50;99.90;;;;;;5033543;28;20397;-80
2022/05/24 11:24:45;;;;;;;1.88;0.88;;;16.00;99.90;;;;;;5033320;28;20057;-79
2022/05/24 11:27:15;;;;;;;4.00;1.23;;;16.00;99.90;;;;;;5028340;28;20075;-81
2022/05/24 11:29:47;;;;;;;1.58;0.93;;;15.90;99.90;;;;;;5035668;28;20025;-79
2022/05/24 11:32:37;;;;;;;1.92;1.10;;;15.70;99.90;;;;;;5031868;28;20034;-79
2022/05/24 11:35:18;;;;;;;2.53;0.95;;;16.00;99.90;;;;;;5030276;28;20063;-79
2022/05/24 11:37:51;;;;;;;2.35;0.88;;;15.90;99.90;;;;;;5030309;28;20577;-81
2022/05/24 11:40:37;;;;;;;2.92;1.23;;;16.60;99.90;;;;;;5029065;28;20037;-82
2022/05/24 11:43:08;;;;;;;1.60;0.95;;;16.80;99.90;;;;;;5038219;28;20036;-81
2022/05/24 11:45:34;;;;;;;5.78;0.80;;;16.60;99.90;;;;;;5039857;28;20025;-80
2022/05/24 11:48:06;;;;;;;0.95;0.85;;;16.50;99.90;;;;;;5035382;28;20109;-81
2022/05/24 11:50:31;;;;;;;1.70;0.80;;;16.60;99.90;;;;;;5037054;28;20448;-81
2022/05/24 11:53:12;;;;;;;3.35;1.10;;;16.30;99.90;;;;;;5039656;28;20043;-80
2022/05/24 11:55:40;;;;;;;;;;;16.30;99.90;;;;;;5038077;28;20041;-81
2022/05/24 11:58:20;;;;;;;2.05;0.90;;;16.30;99.90;;;;;;5029684;28;19917;-84
2022/05/24 12:01:16;;;;;;;3.97;1.40;;;16.20;99.90;;;;;;5028621;28;20138;-80
2022/05/24 12:10:25;;;;;;;2.00;0.90;;;16.40;99.90;;;;;;5030167;28;20041;-80
2022/05/24 12:13:03;;;;;;;2.00;1.05;;;16.40;99.90;;;;;;5039857;28;20044;-80
2022/05/24 12:15:32;;;;;;;2.95;0.98;;;16.00;99.90;;;;;;5040432;28;20032;-80
2022/05/24 12:17:58;;;;;;;2.08;1.10;;;16.10;99.90;;;;;;5031417;28;20033;-81
2022/05/24 12:20:32;;;;;;;2.17;1.30;;;16.20;99.90;;;;;;5036118;28;20090;-81
2022/05/24 12:23:04;;;;;;;3.28;1.55;;;16.20;99.90;;;;;;5052584;28;20048;-80
2022/05/24 12:26:03;;;;;;;1.25;1.15;;;16.70;99.90;;;;;;5038932;28;20021;-89
2022/05/24 12:28:34;;;;;;;3.22;1.40;;;17.00;99.90;;;;;;5034564;28;20504;-81
2022/05/24 12:31:05;;;;;;;2.40;1.33;;;17.10;99.90;;;;;;5029325;28;20454;-83
2022/05/24 12:33:31;;;;;;;2.80;1.23;;;17.10;99.90;;;;;;5031471;28;20025;-82
2022/05/24 12:36:05;;;;;;;2.20;1.40;;;17.40;99.90;;;;;;5035736;28;20100;-83
2022/05/24 12:38:33;;;;;;;1.63;1.42;;;17.00;99.90;;;;;;5024447;28;20034;-82
2022/05/24 12:41:17;;;;;;;2.58;1.77;;;16.40;99.90;;;;;;5044503;28;20029;-82
2022/05/24 12:44:14;;;;;;;2.10;1.30;;;16.10;99.90;;;;;;5031567;28;20050;-82
2022/05/24 12:46:45;;;;;;;3.05;1.42;;;15.80;99.90;;;;;;5032999;28;20112;-82
2022/05/24 12:49:17;;;;;;;3.03;1.60;;;15.80;99.90;;;;;;5027350;28;20024;-82
2022/05/24 12:51:43;;;;;;;3.60;1.60;;;16.00;99.90;;;;;;5048307;28;20037;-82
2022/05/24 12:54:17;;;;;;;1.90;1.50;;;15.90;99.90;;;;;;5019737;28;20059;-83
2022/05/24 12:57:12;;;;;;;3.97;1.77;;;15.60;99.90;;;;;;5031810;28;20032;-83
2022/05/24 12:59:41;;;;;;;2.40;1.65;;;15.00;99.90;;;;;;5034435;28;20024;-84
2022/05/24 13:02:22;;;;;;;4.28;1.70;;;15.20;99.90;;;;;;5047128;28;20037;-84
2022/05/24 13:04:48;;;;;;;2.67;1.35;;;15.70;99.90;;;;;;5049001;28;20523;-82
2022/05/24 13:07:41;;;;;;;1.65;1.40;;;15.40;99.90;;;;;;5030606;28;20102;-85
2022/05/24 13:10:19;;;;;;;2.55;1.70;;;15.40;99.90;;;;;;5021951;28;20409;-84
2022/05/24 13:13:09;;;;;;;1.38;1.27;;;15.70;99.90;;;;;;5041856;28;20027;-80
2022/05/24 13:15:40;;;;;;;1.27;1.17;;;15.70;99.90;;;;;;5023158;28;20033;-84
2022/05/24 13:18:12;;;;;;;2.00;1.55;;;17.00;99.90;;;;;;5036446;28;20032;-84
2022/05/24 13:20:57;;;;;;;2.00;1.27;;;17.10;99.90;;;;;;5034311;28;20044;-88
2022/05/24 13:23:30;;;;;;;1.75;1.25;;;16.60;99.90;;;;;;5031836;28;20127;-86
2022/05/24 13:26:06;;;;;;;1.40;1.20;;;16.60;99.90;;;;;;5031399;28;20465;-82
2022/05/24 13:28:35;;;;;;;3.45;1.80;;;16.70;99.90;;;;;;5030329;28;20048;-90
2022/05/24 13:34:24;;;;;;;2.28;1.42;;;16.50;99.90;;;;;;5026423;28;20082;-88
2022/05/24 13:36:57;;;;;;;2.78;1.30;;;15.80;99.90;;;;;;5041790;28;20025;-89
2022/05/24 13:39:39;;;;;;;4.28;1.80;;;15.60;99.90;;;;;;5037844;28;20089;-93
2022/05/24 13:42:11;;;;;;;2.05;1.17;;;15.30;99.90;;;;;;5038307;28;20314;-91
2022/05/24 13:45:08;;;;;;;1.75;1.33;;;15.20;99.90;;;;;;5038369;28;20033;-94
2022/05/24 13:47:37;;;;;;;4.03;1.30;;;15.40;99.90;;;;;;5036438;28;20116;-86
2022/05/24 13:50:42;;;;;;;6.07;1.40;;;14.80;99.90;;;;;;5038577;28;20029;-84
2022/05/24 13:53:38;;;;;;;1.60;1.33;;;15.00;99.90;;;;;;4967051;28;20038;-90
2022/05/24 13:56:13;;;;;;;1.40;1.20;;;15.10;99.90;;;;;;5025292;28;20033;-91